createdAt,value
2023-01-18T00:01:19.730Z,85.70
2023-01-18T00:03:47.707Z,85.20
2023-01-18T00:06:15.091Z,84.90
2023-01-18T00:08:45.265Z,84.70
2023-01-18T00:11:15.730Z,84.60
2023-01-18T00:13:43.362Z,84.70
2023-01-18T00:16:22.015Z,84.90
2023-01-18T00:18:54.585Z,84.80
2023-01-18T00:21:22.689Z,84.90
2023-01-18T00:23:50.154Z,85.20
2023-01-18T00:26:17.683Z,85.20
2023-01-18T00:28:45.129Z,85.30
2023-01-18T00:31:14.333Z,85.20
2023-01-18T00:33:46.338Z,85.00
2023-01-18T00:36:14.843Z,84.90
2023-01-18T00:38:52.490Z,84.60
2023-01-18T00:41:21.589Z,84.20
2023-01-18T00:43:49.508Z,83.50
2023-01-18T00:46:23.034Z,83.30
2023-01-18T00:48:51.949Z,83.20
2023-01-18T00:51:24.939Z,82.90
2023-01-18T00:53:52.564Z,82.70
2023-01-18T00:56:22.221Z,82.40
2023-01-18T00:58:49.626Z,82.30
2023-01-18T01:01:17.294Z,82.50
2023-01-18T01:04:03.136Z,82.70
2023-01-18T01:06:46.371Z,82.90
2023-01-18T01:09:26.167Z,83.10
2023-01-18T01:12:13.246Z,83.80
2023-01-18T01:15:02.457Z,84.00
2023-01-18T01:17:53.599Z,84.80
2023-01-18T01:20:40.061Z,85.70
2023-01-18T01:23:35.072Z,86.10
2023-01-18T01:26:11.098Z,87.20
2023-01-18T01:28:43.816Z,87.30
2023-01-18T01:31:15.666Z,87.70
2023-01-18T01:33:45.016Z,87.80
2023-01-18T01:36:15.762Z,87.70
2023-01-18T01:38:43.337Z,87.60
2023-01-18T01:41:18.058Z,87.70
2023-01-18T01:43:50.978Z,87.60
2023-01-18T01:46:49.115Z,87.80
2023-01-18T01:49:24.150Z,87.60
2023-01-18T01:51:55.857Z,87.90
2023-01-18T01:54:39.093Z,88.00
2023-01-18T01:57:15.840Z,88.50
2023-01-18T01:59:55.897Z,88.90
2023-01-18T02:02:23.299Z,89.30
2023-01-18T02:04:53.978Z,89.20
2023-01-18T02:07:26.559Z,89.40
2023-01-18T02:09:54.569Z,89.80
2023-01-18T02:12:21.975Z,89.90
2023-01-18T02:14:49.366Z,90.00
2023-01-18T02:17:32.882Z,90.20
2023-01-18T02:20:43.607Z,90.60
2023-01-18T02:23:43.985Z,90.60
2023-01-18T02:26:38.956Z,90.50
2023-01-18T02:29:36.854Z,90.50
2023-01-18T02:32:25.569Z,90.50
2023-01-18T02:35:07.060Z,90.80
2023-01-18T02:38:03.358Z,90.50
2023-01-18T02:40:39.746Z,90.70
2023-01-18T02:43:28.855Z,91.20
2023-01-18T02:46:16.018Z,91.10
2023-01-18T02:48:45.376Z,91.20
2023-01-18T02:51:12.720Z,91.30
2023-01-18T02:53:43.905Z,91.50
2023-01-18T02:56:25.759Z,91.70
2023-01-18T02:59:02.385Z,91.90
2023-01-18T03:01:44.672Z,92.30
2023-01-18T03:04:22.322Z,92.10
2023-01-18T03:06:57.531Z,92.00
2023-01-18T03:09:27.466Z,91.80
2023-01-18T03:12:17.864Z,91.50
2023-01-18T03:15:10.325Z,91.10
2023-01-18T03:18:05.596Z,90.30
2023-01-18T03:20:40.784Z,89.60
2023-01-18T03:23:34.532Z,88.80
2023-01-18T03:26:04.161Z,88.50
2023-01-18T03:28:59.483Z,88.50
2023-01-18T03:32:07.783Z,88.50
2023-01-18T03:35:13.543Z,88.80
2023-01-18T03:37:43.631Z,88.90
2023-01-18T03:40:13.035Z,89.00
2023-01-18T03:43:15.204Z,89.20
2023-01-18T03:45:50.161Z,89.30
2023-01-18T03:48:17.807Z,89.00
2023-01-18T03:51:16.512Z,89.10
2023-01-18T03:53:58.309Z,88.90
2023-01-18T03:56:39.204Z,89.00
2023-01-18T03:59:08.169Z,89.30
2023-01-18T04:01:36.039Z,89.70
2023-01-18T04:04:03.375Z,90.30
2023-01-18T04:06:32.822Z,90.70
2023-01-18T04:09:00.141Z,91.60
2023-01-18T04:11:27.490Z,91.80
2023-01-18T04:13:55.173Z,92.60
2023-01-18T04:16:22.786Z,93.00
2023-01-18T04:18:50.157Z,93.30
2023-01-18T04:21:17.465Z,93.70
2023-01-18T04:23:44.783Z,94.40
2023-01-18T04:26:15.463Z,95.10
2023-01-18T04:28:43.550Z,96.40
2023-01-18T04:31:10.916Z,97.40
2023-01-18T04:33:38.200Z,97.40
2023-01-18T04:36:05.791Z,97.80
2023-01-18T04:38:33.882Z,97.40
2023-01-18T04:41:05.763Z,97.20
2023-01-18T04:43:33.095Z,96.90
2023-01-18T04:46:00.611Z,95.80
2023-01-18T04:48:27.968Z,95.10
2023-01-18T04:50:55.436Z,94.40
2023-01-18T04:53:23.225Z,94.10
2023-01-18T04:55:50.688Z,93.90
2023-01-18T04:58:18.041Z,93.90
2023-01-18T05:00:45.520Z,93.70
2023-01-18T05:03:13.460Z,93.60
2023-01-18T05:05:41.261Z,93.20
2023-01-18T05:08:08.682Z,93.30
2023-01-18T05:10:36.153Z,93.30
2023-01-18T05:13:03.938Z,93.30
2023-01-18T05:15:31.346Z,93.10
2023-01-18T05:17:58.682Z,93.10
2023-01-18T05:20:25.932Z,92.90
2023-01-18T05:22:53.373Z,92.40
2023-01-18T05:25:20.793Z,92.40
2023-01-18T05:27:48.119Z,92.00
2023-01-18T05:30:15.749Z,91.80
2023-01-18T05:32:43.144Z,91.50
2023-01-18T05:35:11.417Z,91.70
2023-01-18T05:37:38.828Z,91.70
2023-01-18T05:40:06.743Z,91.70
2023-01-18T05:42:34.083Z,91.60
2023-01-18T05:45:01.395Z,91.90
2023-01-18T05:47:28.755Z,92.40
2023-01-18T05:49:58.036Z,92.70
2023-01-18T05:52:25.382Z,92.30
2023-01-18T05:54:52.613Z,92.60
2023-01-18T05:57:19.891Z,92.20
2023-01-18T05:59:47.169Z,92.60
2023-01-18T06:02:14.710Z,92.50
2023-01-18T06:04:42.104Z,92.40
2023-01-18T06:07:09.607Z,91.90
2023-01-18T06:09:37.152Z,92.00
2023-01-18T06:12:04.644Z,92.00
2023-01-18T06:14:32.043Z,91.90
2023-01-18T06:16:59.349Z,92.00
2023-01-18T06:19:26.881Z,92.00
2023-01-18T06:21:54.874Z,91.60
2023-01-18T06:24:22.225Z,91.00
2023-01-18T06:26:49.515Z,90.60
2023-01-18T06:29:16.974Z,90.80
2023-01-18T06:31:44.337Z,91.20
2023-01-18T06:34:11.885Z,91.80
2023-01-18T06:36:40.559Z,92.60
2023-01-18T06:39:08.011Z,92.30
2023-01-18T06:41:35.379Z,91.30
2023-01-18T06:44:03.810Z,91.60
2023-01-18T06:46:31.241Z,91.80
2023-01-18T06:48:58.541Z,91.80
2023-01-18T06:51:25.891Z,92.50
2023-01-18T06:53:53.311Z,92.50
2023-01-18T06:56:21.055Z,93.20
2023-01-18T06:58:48.675Z,93.50
2023-01-18T07:01:16.151Z,94.00
2023-01-18T07:03:43.733Z,94.10
2023-01-18T07:06:11.607Z,94.40
2023-01-18T07:08:40.359Z,94.90
2023-01-18T07:11:09.243Z,95.20
2023-01-18T07:13:40.299Z,95.50
2023-01-18T07:16:09.040Z,95.20
2023-01-18T07:18:36.447Z,94.70
2023-01-18T07:21:07.239Z,95.30
2023-01-18T07:23:36.744Z,94.70
2023-01-18T07:26:11.132Z,94.60
2023-01-18T07:28:38.976Z,94.00
2023-01-18T07:31:08.176Z,93.70
2023-01-18T07:33:36.450Z,93.10
2023-01-18T07:36:06.524Z,92.20
2023-01-18T07:38:34.417Z,92.30
2023-01-18T07:41:03.354Z,92.10
2023-01-18T07:43:32.555Z,92.00
2023-01-18T07:46:00.911Z,91.80
2023-01-18T07:48:29.292Z,92.30
2023-01-18T07:51:01.981Z,92.40
2023-01-18T07:53:31.006Z,92.00
2023-01-18T07:56:07.311Z,91.30
2023-01-18T07:58:36.121Z,90.50
2023-01-18T08:01:15.490Z,89.40
2023-01-18T08:03:44.470Z,87.90
2023-01-18T08:06:17.155Z,86.70
2023-01-18T08:08:45.157Z,83.40
2023-01-18T08:11:12.904Z,81.90
2023-01-18T08:13:40.417Z,81.80
2023-01-18T08:16:09.453Z,80.90
2023-01-18T08:18:36.970Z,81.00
2023-01-18T08:21:04.393Z,80.90
2023-01-18T08:23:31.702Z,80.30
2023-01-18T08:26:03.409Z,79.20
2023-01-18T08:28:31.500Z,76.20
2023-01-18T08:31:08.309Z,77.40
2023-01-18T08:33:45.732Z,79.10
2023-01-18T08:36:16.779Z,80.90
2023-01-18T08:38:47.599Z,82.00
2023-01-18T08:41:15.025Z,82.80
2023-01-18T08:43:43.181Z,82.30
2023-01-18T08:46:10.621Z,82.60
2023-01-18T08:48:37.985Z,83.40
2023-01-18T08:51:05.519Z,83.90
2023-01-18T08:53:33.064Z,84.00
2023-01-18T08:56:03.398Z,83.70
2023-01-18T08:58:32.389Z,83.30
2023-01-18T09:00:59.772Z,82.60
2023-01-18T09:03:27.108Z,80.90
2023-01-18T09:05:54.954Z,80.50
2023-01-18T09:08:23.206Z,78.00
2023-01-18T09:10:50.505Z,77.40
2023-01-18T09:13:17.877Z,76.10
2023-01-18T09:15:47.156Z,74.70
2023-01-18T09:18:14.529Z,73.90
2023-01-18T09:20:43.770Z,73.70
2023-01-18T09:23:11.205Z,73.30
2023-01-18T09:25:41.262Z,73.10
2023-01-18T09:28:09.064Z,72.00
2023-01-18T09:30:40.076Z,71.60
2023-01-18T09:33:11.368Z,71.10
2023-01-18T09:35:39.002Z,70.30
2023-01-18T09:38:07.561Z,69.60
2023-01-18T09:40:44.536Z,68.80
2023-01-18T09:43:30.364Z,69.40
2023-01-18T09:46:00.010Z,69.60
2023-01-18T09:48:32.248Z,68.40
2023-01-18T09:51:05.222Z,69.10
2023-01-18T09:54:05.080Z,68.90
2023-01-18T09:57:05.669Z,68.40
2023-01-18T09:59:37.436Z,67.90
2023-01-18T10:02:21.558Z,67.30
2023-01-18T10:04:56.084Z,66.80
2023-01-18T10:07:27.625Z,66.60
2023-01-18T10:09:58.895Z,66.80
2023-01-18T10:12:42.473Z,66.40
2023-01-18T10:15:23.657Z,66.00
2023-01-18T10:17:56.858Z,65.70
2023-01-18T10:20:35.789Z,65.90
2023-01-18T10:23:25.073Z,65.80
2023-01-18T10:26:27.392Z,65.30
2023-01-18T10:28:59.265Z,64.80
2023-01-18T10:31:59.879Z,64.20
2023-01-18T10:34:33.100Z,64.70
2023-01-18T10:37:21.322Z,63.40
2023-01-18T10:39:54.300Z,63.40
2023-01-18T10:42:29.525Z,63.80
2023-01-18T10:44:57.487Z,63.60
2023-01-18T10:47:24.809Z,63.30
2023-01-18T10:50:01.640Z,62.40
2023-01-18T10:52:33.200Z,61.40
2023-01-18T10:55:03.372Z,61.40
2023-01-18T10:57:32.920Z,62.60
2023-01-18T11:00:00.468Z,62.10
2023-01-18T11:02:36.143Z,62.30
2023-01-18T11:05:18.928Z,62.20
2023-01-18T11:07:46.277Z,61.90
2023-01-18T11:10:27.872Z,62.30
2023-01-18T11:12:55.672Z,62.10
2023-01-18T11:15:25.004Z,61.60
2023-01-18T11:17:56.415Z,61.90
2023-01-18T11:20:25.845Z,62.00
2023-01-18T11:23:02.519Z,60.70
2023-01-18T11:25:39.420Z,59.00
2023-01-18T11:28:27.841Z,59.00
2023-01-18T11:31:15.432Z,58.70
2023-01-18T11:33:58.011Z,58.80
2023-01-18T11:36:43.812Z,58.60
2023-01-18T11:39:25.777Z,58.00
2023-01-18T11:42:09.569Z,57.80
2023-01-18T11:44:40.222Z,57.40
2023-01-18T11:47:16.872Z,57.50
2023-01-18T11:50:21.058Z,57.50
2023-01-18T11:53:01.244Z,57.60
2023-01-18T11:55:41.087Z,57.70
2023-01-18T11:58:26.995Z,56.60
2023-01-18T12:01:25.413Z,56.60
2023-01-18T12:03:56.962Z,56.50
2023-01-18T12:06:41.566Z,55.60
2023-01-18T12:09:14.756Z,55.40
2023-01-18T12:12:17.910Z,55.70
2023-01-18T12:14:59.628Z,56.60
2023-01-18T12:17:39.134Z,55.90
2023-01-18T12:20:10.320Z,55.30
2023-01-18T12:23:28.261Z,53.50
2023-01-18T12:26:11.799Z,51.90
2023-01-18T12:28:40.005Z,50.00
2023-01-18T12:31:15.344Z,47.70
2023-01-18T12:34:15.019Z,46.50
2023-01-18T12:36:59.031Z,46.20
2023-01-18T12:39:44.278Z,46.30
2023-01-18T12:42:36.440Z,45.10
2023-01-18T12:45:46.184Z,45.00
2023-01-18T12:48:41.332Z,45.70
2023-01-18T12:51:21.728Z,47.00
2023-01-18T12:53:55.867Z,48.30
2023-01-18T12:56:36.154Z,47.80
2023-01-18T12:59:29.233Z,47.30
2023-01-18T13:02:05.886Z,47.30
2023-01-18T13:04:45.330Z,45.40
2023-01-18T13:07:15.721Z,45.60
2023-01-18T13:09:49.694Z,45.60
2023-01-18T13:12:17.792Z,45.60
2023-01-18T13:14:54.261Z,45.80
2023-01-18T13:17:48.686Z,46.40
2023-01-18T13:20:20.045Z,46.60
2023-01-18T13:23:05.454Z,47.50
2023-01-18T13:25:41.804Z,48.10
2023-01-18T13:28:18.020Z,48.50
2023-01-18T13:31:06.546Z,48.90
2023-01-18T13:33:40.928Z,49.10
2023-01-18T13:36:09.277Z,50.00
2023-01-18T13:38:58.937Z,50.80
2023-01-18T13:41:30.964Z,50.90
2023-01-18T13:43:58.088Z,51.40
2023-01-18T13:46:26.201Z,51.70
2023-01-18T13:49:35.729Z,52.10
2023-01-18T13:52:31.697Z,52.50
2023-01-18T13:55:02.531Z,53.10
2023-01-18T13:57:34.681Z,53.70
2023-01-18T14:00:02.878Z,54.20
2023-01-18T14:02:45.544Z,54.60
2023-01-18T14:05:28.920Z,54.20
2023-01-18T14:08:01.677Z,53.90
2023-01-18T14:10:32.232Z,53.90
2023-01-18T14:13:02.791Z,53.80
2023-01-18T14:15:39.771Z,54.00
2023-01-18T14:18:24.272Z,53.50
2023-01-18T14:21:23.922Z,53.80
2023-01-18T14:24:09.612Z,53.90
2023-01-18T14:26:39.526Z,54.40
2023-01-18T14:29:29.170Z,54.90
2023-01-18T14:31:57.454Z,54.70
2023-01-18T14:34:30.619Z,55.30
2023-01-18T14:36:58.386Z,55.10
2023-01-18T14:39:26.130Z,55.10
2023-01-18T14:42:05.327Z,54.60
2023-01-18T14:44:58.263Z,54.20
2023-01-18T14:47:32.404Z,54.20
2023-01-18T14:50:04.124Z,54.10
2023-01-18T14:52:34.410Z,54.60
2023-01-18T14:55:02.678Z,54.80
2023-01-18T14:57:30.145Z,55.20
2023-01-18T15:00:16.649Z,55.50
2023-01-18T15:02:44.263Z,56.00
2023-01-18T15:05:20.281Z,56.30
2023-01-18T15:07:56.063Z,56.20
2023-01-18T15:10:24.949Z,56.60
2023-01-18T15:12:57.941Z,56.80
2023-01-18T15:15:40.759Z,56.50
2023-01-18T15:18:15.644Z,56.80
2023-01-18T15:21:06.369Z,56.70
2023-01-18T15:23:36.942Z,57.20
2023-01-18T15:26:04.449Z,57.70
2023-01-18T15:28:34.825Z,58.20
2023-01-18T15:31:16.377Z,58.70
2023-01-18T15:33:45.018Z,59.00
2023-01-18T15:36:12.640Z,59.10
2023-01-18T15:38:40.070Z,59.60
2023-01-18T15:41:11.616Z,60.20
2023-01-18T15:43:43.113Z,60.80
2023-01-18T15:46:16.226Z,61.60
2023-01-18T15:48:58.254Z,62.30
2023-01-18T15:51:44.146Z,63.20
2023-01-18T15:54:20.366Z,64.30
2023-01-18T15:56:49.361Z,65.10
2023-01-18T15:59:23.443Z,66.00
2023-01-18T16:02:26.426Z,66.70
2023-01-18T16:05:14.629Z,67.70
2023-01-18T16:07:42.299Z,68.70
2023-01-18T16:10:20.473Z,69.40
2023-01-18T16:12:48.186Z,69.90
2023-01-18T16:15:30.460Z,70.80
2023-01-18T16:18:02.795Z,71.40
2023-01-18T16:20:32.561Z,71.80
2023-01-18T16:23:14.088Z,72.30
2023-01-18T16:25:41.510Z,72.80
2023-01-18T16:28:08.784Z,73.40
2023-01-18T16:30:38.015Z,73.90
2023-01-18T16:33:14.131Z,74.30
2023-01-18T16:35:42.206Z,75.10
2023-01-18T16:38:17.438Z,75.40
2023-01-18T16:40:47.345Z,76.00
2023-01-18T16:43:23.880Z,76.40
2023-01-18T16:45:54.902Z,76.80
2023-01-18T16:48:28.288Z,77.20
2023-01-18T16:51:01.893Z,77.60
2023-01-18T16:53:29.721Z,78.00
2023-01-18T16:55:57.042Z,78.30
2023-01-18T16:58:24.593Z,78.60
2023-01-18T17:01:03.444Z,78.90
2023-01-18T17:03:30.917Z,79.20
2023-01-18T17:05:58.269Z,79.30
2023-01-18T17:08:25.560Z,79.60
2023-01-18T17:10:54.885Z,79.70
2023-01-18T17:13:22.487Z,80.00
2023-01-18T17:15:51.370Z,80.20
2023-01-18T17:18:24.212Z,80.40
2023-01-18T17:20:52.009Z,80.70
2023-01-18T17:23:19.788Z,81.40
2023-01-18T17:25:47.861Z,81.70
2023-01-18T17:28:16.898Z,82.00
2023-01-18T17:30:47.180Z,82.50
2023-01-18T17:33:22.984Z,82.90
2023-01-18T17:35:52.001Z,82.90
2023-01-18T17:38:25.720Z,83.70
2023-01-18T17:40:54.868Z,84.40
2023-01-18T17:43:32.987Z,84.70
2023-01-18T17:46:06.205Z,84.70
2023-01-18T17:48:33.770Z,85.10
2023-01-18T17:51:01.221Z,85.30
2023-01-18T17:53:28.557Z,85.70
2023-01-18T17:55:55.858Z,85.80
2023-01-18T17:58:23.176Z,86.10
2023-01-18T18:00:50.677Z,86.20
2023-01-18T18:03:18.110Z,86.50
2023-01-18T18:05:45.536Z,87.40
2023-01-18T18:08:12.747Z,87.90
2023-01-18T18:10:43.417Z,88.50
2023-01-18T18:13:12.150Z,89.50
2023-01-18T18:15:45.118Z,89.50
2023-01-18T18:18:22.747Z,89.60
2023-01-18T18:20:58.890Z,89.80
2023-01-18T18:23:27.436Z,90.20
2023-01-18T18:25:55.781Z,89.80
2023-01-18T18:28:24.592Z,89.70
2023-01-18T18:30:52.228Z,90.50
2023-01-18T18:33:20.362Z,90.70
2023-01-18T18:35:52.181Z,90.70
2023-01-18T18:38:23.168Z,89.60
2023-01-18T18:40:51.551Z,89.40
2023-01-18T18:43:19.296Z,89.40
2023-01-18T18:45:47.771Z,89.40
2023-01-18T18:48:15.314Z,89.70
2023-01-18T18:50:42.576Z,90.00
2023-01-18T18:53:09.887Z,90.70
2023-01-18T18:55:37.272Z,90.80
2023-01-18T18:58:05.362Z,90.80
2023-01-18T19:00:32.746Z,90.90
2023-01-18T19:03:02.599Z,91.10
2023-01-18T19:05:31.705Z,91.50
2023-01-18T19:07:59.811Z,91.90
2023-01-18T19:10:30.495Z,92.20
2023-01-18T19:12:59.543Z,92.60
2023-01-18T19:15:26.977Z,92.50
2023-01-18T19:17:54.351Z,92.60
2023-01-18T19:20:21.995Z,93.00
2023-01-18T19:22:50.914Z,93.50
2023-01-18T19:25:18.298Z,94.10
2023-01-18T19:27:46.277Z,94.30
2023-01-18T19:30:19.134Z,94.50
2023-01-18T19:32:51.090Z,95.00
2023-01-18T19:35:20.110Z,95.10
2023-01-18T19:37:48.068Z,95.20
2023-01-18T19:40:16.332Z,95.50
2023-01-18T19:42:44.818Z,95.70
2023-01-18T19:45:19.578Z,96.00
2023-01-18T19:47:54.757Z,96.50
2023-01-18T19:50:22.294Z,96.80
2023-01-18T19:52:50.447Z,97.30
2023-01-18T19:55:17.907Z,97.90
2023-01-18T19:57:45.313Z,98.10
2023-01-18T20:00:15.591Z,97.90
2023-01-18T20:02:43.820Z,97.70
2023-01-18T20:05:11.162Z,97.60
2023-01-18T20:07:40.319Z,97.90
2023-01-18T20:10:08.725Z,98.00
2023-01-18T20:12:36.014Z,98.40
2023-01-18T20:15:03.545Z,98.20
2023-01-18T20:17:30.896Z,98.00
2023-01-18T20:19:58.073Z,98.00
2023-01-18T20:22:25.448Z,97.90
2023-01-18T20:24:52.671Z,98.10
2023-01-18T20:27:20.028Z,98.20
2023-01-18T20:29:47.327Z,98.60
2023-01-18T20:32:17.080Z,99.00
2023-01-18T20:34:46.998Z,99.00
2023-01-18T20:37:15.759Z,98.30
2023-01-18T20:39:43.476Z,97.50
2023-01-18T20:42:10.982Z,97.30
2023-01-18T20:44:38.375Z,97.30
2023-01-18T20:47:05.881Z,97.30
2023-01-18T20:49:38.035Z,97.40
2023-01-18T20:52:07.219Z,97.60
2023-01-18T20:54:37.995Z,97.60
2023-01-18T20:57:06.350Z,97.50
2023-01-18T20:59:33.653Z,97.00
2023-01-18T21:02:10.287Z,97.10
2023-01-18T21:04:39.781Z,96.50
2023-01-18T21:07:07.002Z,94.90
2023-01-18T21:09:34.214Z,92.70
2023-01-18T21:12:01.575Z,91.60
2023-01-18T21:15:16.737Z,91.10
2023-01-18T21:18:04.166Z,90.70
2023-01-18T21:20:34.509Z,89.80
2023-01-18T21:23:02.109Z,89.60
2023-01-18T21:25:29.751Z,89.50
2023-01-18T21:28:00.424Z,89.50
2023-01-18T21:30:27.947Z,89.30
2023-01-18T21:32:58.044Z,89.40
2023-01-18T21:35:25.349Z,89.40
2023-01-18T21:37:52.742Z,89.40
2023-01-18T21:40:20.037Z,90.00
2023-01-18T21:43:08.458Z,90.50
2023-01-18T21:45:56.700Z,90.30
2023-01-18T21:48:43.484Z,90.00
2023-01-18T21:51:31.492Z,89.50
2023-01-18T21:57:34.201Z,88.30
2023-01-18T22:00:05.753Z,87.80
2023-01-18T22:02:35.075Z,87.20
2023-01-18T22:05:06.235Z,86.60
2023-01-18T22:07:35.500Z,86.20
2023-01-18T22:10:06.141Z,86.00
2023-01-18T22:12:36.038Z,85.70
2023-01-18T22:15:05.363Z,85.50
2023-01-18T22:17:35.693Z,85.70
2023-01-18T22:20:04.699Z,85.80
2023-01-18T22:22:31.962Z,85.60
2023-01-18T22:25:02.286Z,85.30
2023-01-18T22:27:29.744Z,85.00
2023-01-18T22:32:39.095Z,84.80
2023-01-18T22:35:06.581Z,81.00
2023-01-18T22:37:33.737Z,78.90
2023-01-18T22:40:01.018Z,78.00
2023-01-18T22:42:28.370Z,77.70
2023-01-18T22:44:55.610Z,76.40
2023-01-18T22:47:22.990Z,75.10
2023-01-18T22:49:50.181Z,74.10
2023-01-18T22:52:17.580Z,74.00
2023-01-18T22:54:44.991Z,73.30
2023-01-18T22:57:13.295Z,73.60
2023-01-18T22:59:40.710Z,73.70
2023-01-18T23:02:07.960Z,73.80
2023-01-18T23:04:35.516Z,74.20
2023-01-18T23:07:02.751Z,74.60
2023-01-18T23:09:38.492Z,74.80
2023-01-18T23:12:05.913Z,74.90
2023-01-18T23:14:53.427Z,74.90
2023-01-18T23:17:39.337Z,74.80
2023-01-18T23:20:11.816Z,74.10
2023-01-18T23:22:40.941Z,73.80
2023-01-18T23:25:12.445Z,73.90
2023-01-18T23:27:39.799Z,73.20
2023-01-18T23:30:07.613Z,72.90
2023-01-18T23:32:37.434Z,72.50
2023-01-18T23:35:06.168Z,71.80
2023-01-18T23:37:34.977Z,71.60
2023-01-18T23:40:22.571Z,71.70
2023-01-18T23:43:12.195Z,71.70
2023-01-18T23:45:58.201Z,72.20
2023-01-18T23:48:45.017Z,72.60
2023-01-18T23:51:31.919Z,72.60
2023-01-18T23:54:17.044Z,72.80
2023-01-18T23:56:46.099Z,73.20
2023-01-18T23:59:14.348Z,73.60
